Time;durP1;ratioP1;P1;durP2;ratioP2;P2;SDS_P1;SDS_P2;PMS_P1;PMS_P2;Temp;Humidity;BMP_temperature;BMP_pressure;BME280_temperature;BME280_humidity;BME280_pressure;Samples;Min_cycle;Max_cycle;Signal;HPM_P1;HPM_P2
2022/09/05 00:01:26;;;;;;;4.30;1.85;;;;;;;8.09;78.56;99915.59;4967105;28;20537;-43
2022/09/05 00:04:04;;;;;;;2.70;1.80;;;;;;;8.03;78.75;99911.41;4952381;28;20058;-43
2022/09/05 00:06:32;;;;;;;3.38;1.80;;;;;;;8.00;79.14;99910.63;4964940;28;20050;-43
2022/09/05 00:09:18;;;;;;;3.10;2.08;;;;;;;7.97;79.46;99918.44;4969831;28;20554;-42
2022/09/05 00:11:57;;;;;;;4.55;2.60;;;;;;;7.80;79.57;99886.88;4969293;28;20051;-40
2022/09/05 00:14:44;;;;;;;5.85;2.20;;;;;;;7.92;80.09;99915.06;4963067;28;20140;-41
2022/09/05 00:17:33;;;;;;;3.97;2.10;;;;;;;7.88;80.22;99909.13;4970541;28;20723;-40
2022/09/05 00:20:20;;;;;;;2.90;1.70;;;;;;;7.68;80.39;99884.50;4953507;28;20062;-41
2022/09/05 00:22:54;;;;;;;3.78;2.00;;;;;;;7.85;80.60;99911.75;4959831;28;20046;-43
2022/09/05 00:25:39;;;;;;;4.18;1.60;;;;;;;7.87;81.01;99912.59;4970963;28;20042;-42
2022/09/05 00:28:21;;;;;;;3.75;1.70;;;;;;;7.89;81.05;99909.97;4967390;28;20039;-41
2022/09/05 00:31:02;;;;;;;2.67;1.80;;;;;;;7.89;81.15;99905.66;4960989;28;20138;-42
2022/09/05 00:33:57;;;;;;;5.30;1.92;;;;;;;7.87;81.71;99903.97;4960480;28;20049;-40
2022/09/05 00:36:43;;;;;;;3.83;1.95;;;;;;;7.87;81.76;99901.38;4968598;28;20050;-40
2022/09/05 00:39:31;;;;;;;3.22;1.92;;;;;;;7.72;81.71;99887.00;4971198;28;20077;-43
2022/09/05 00:42:00;;;;;;;1.83;1.50;;;;;;;7.86;82.08;99897.94;4968139;28;20049;-41
2022/09/05 00:44:30;;;;;;;4.88;1.85;;;;;;;7.85;82.14;99898.81;4953810;28;20049;-43
2022/09/05 00:47:05;;;;;;;2.75;1.73;;;;;;;7.82;81.92;99898.03;4963604;28;20042;-45
2022/09/05 00:49:39;;;;;;;2.95;1.70;;;;;;;7.81;82.33;99893.72;4970811;28;20050;-42
2022/09/05 00:52:26;;;;;;;1.88;1.33;;;;;;;7.80;82.51;99892.88;4967539;28;20122;-40
2022/09/05 00:54:57;;;;;;;2.85;1.75;;;;;;;7.80;82.48;99897.22;4969380;28;20502;-41
2022/09/05 00:58:18;;;;;;;2.45;1.75;;;;;;;7.80;82.64;99894.63;4971302;28;20046;-42
2022/09/05 01:00:44;;;;;;;3.50;1.80;;;;;;;7.77;82.27;99892.09;4947577;28;20120;-43
2022/09/05 01:03:20;;;;;;;3.88;2.08;;;;;;;7.76;82.70;99888.66;4970177;28;20510;-43
2022/09/05 01:06:13;;;;;;;2.55;1.88;;;;;;;7.77;82.60;99889.50;4953636;28;20038;-41
2022/09/05 01:09:00;;;;;;;2.90;1.90;;;;;;;7.75;82.48;99884.34;4966944;28;20077;-44
2022/09/05 01:12:08;;;;;;;2.63;1.83;;;;;;;7.74;82.62;99879.22;4973348;28;20042;-41
2022/09/05 01:14:55;;;;;;;2.67;1.70;;;;;;;7.75;82.78;99884.34;4953523;28;20137;-41
2022/09/05 01:17:44;;;;;;;2.90;1.60;;;;;;;7.83;82.69;99882.47;4967099;28;20097;-43
2022/09/05 01:20:31;;;;;;;3.45;1.98;;;;;;;7.95;82.69;99873.63;4967570;28;20137;-41
2022/09/05 01:23:31;;;;;;;2.22;1.58;;;;;;;8.02;82.20;99857.91;4934883;28;20047;-42
2022/09/05 01:26:33;;;;;;;3.92;1.65;;;;;;;8.17;81.94;99876.56;4967558;28;20105;-41
2022/09/05 01:29:14;;;;;;;3.70;1.88;;;;;;;8.27;81.61;99865.16;4967336;28;20129;-40
2022/09/05 01:32:02;;;;;;;2.60;1.60;;;;;;;8.38;81.48;99873.56;4967135;28;20046;-42
2022/09/05 01:34:33;;;;;;;7.40;2.03;;;;;;;8.45;81.18;99875.13;4966464;28;20162;-43
2022/09/05 01:37:12;;;;;;;3.17;1.50;;;;;;;8.50;80.90;99874.13;4967389;28;20511;-41
2022/09/05 01:40:02;;;;;;;5.70;1.70;;;;;;;8.56;80.77;99865.38;4972602;28;20042;-41
2022/09/05 01:42:58;;;;;;;2.92;2.08;;;;;;;8.57;80.78;99868.81;4982147;28;20062;-41
2022/09/05 01:45:58;;;;;;;3.28;1.80;;;;;;;8.59;80.49;99873.06;4959120;28;20058;-41
2022/09/05 01:48:48;;;;;;;2.72;1.90;;;;;;;8.66;80.25;99866.88;4967203;28;20050;-42
2022/09/05 01:51:35;;;;;;;3.08;1.80;;;;;;;8.70;80.05;99875.41;4973450;28;20066;-41
2022/09/05 01:54:11;;;;;;;2.35;1.60;;;;;;;8.73;79.79;99873.63;4965180;28;20460;-41
2022/09/05 01:57:22;;;;;;;2.30;1.45;;;;;;;8.79;79.55;99868.25;4973752;28;20581;-41
2022/09/05 02:00:12;;;;;;;3.22;1.67;;;;;;;8.84;79.38;99863.00;4959611;28;20117;-43
2022/09/05 02:03:15;;;;;;;3.72;1.88;;;;;;;8.86;78.84;99869.81;4964491;28;20141;-41
2022/09/05 02:05:55;;;;;;;2.05;1.42;;;;;;;8.95;78.94;99873.09;4947738;28;20054;-43
2022/09/05 02:08:23;;;;;;;;;;;;;;;8.98;78.37;99873.88;4968876;28;20130;-44
2022/09/05 02:10:54;;;;;;;2.60;1.67;;;;;;;8.99;78.15;99864.34;4967129;28;19917;-43
2022/09/05 02:13:32;;;;;;;2.42;1.73;;;;;;;9.02;78.11;99875.47;4949999;28;20069;-42
2022/09/05 02:16:20;;;;;;;2.35;1.67;;;;;;;9.04;77.78;99868.53;4966489;28;20066;-44
2022/09/05 02:18:57;;;;;;;1.75;1.40;;;;;;;8.96;77.62;99870.44;4969961;28;20042;-44
2022/09/05 02:21:37;;;;;;;2.78;1.73;;;;;;;8.99;78.08;99872.13;4969119;28;20046;-46
2022/09/05 02:24:24;;;;;;;1.67;1.38;;;;;;;9.02;77.79;99872.88;4966591;28;20454;-45
2022/09/05 02:27:21;;;;;;;2.28;1.60;;;;;;;9.08;77.54;99879.66;4970022;28;20053;-42
2022/09/05 02:30:07;;;;;;;2.55;1.70;;;;;;;9.14;76.96;99876.91;4968213;28;20041;-40
2022/09/05 02:33:01;;;;;;;2.38;1.70;;;;;;;9.17;77.08;99869.03;4952165;28;20050;-41
2022/09/05 02:36:08;;;;;;;3.58;1.42;;;;;;;9.20;76.51;99877.63;4966375;28;20260;-41
2022/09/05 02:38:39;;;;;;;2.03;1.60;;;;;;;9.21;76.11;99881.91;4948121;28;20487;-41
2022/09/05 02:41:31;;;;;;;3.97;1.58;;;;;;;9.25;76.48;99874.91;4966288;28;20066;-44
2022/09/05 02:44:04;;;;;;;2.42;1.20;;;;;;;9.30;76.25;99876.50;4967273;28;20634;-42
2022/09/05 02:46:40;;;;;;;3.08;1.77;;;;;;;9.18;76.03;99862.97;4967928;28;20038;-41
2022/09/05 02:49:11;;;;;;;2.25;1.58;;;;;;;9.35;76.12;99874.63;4967206;28;20570;-41
2022/09/05 02:51:50;;;;;;;3.25;1.67;;;;;;;9.24;75.93;99848.13;4967404;28;20522;-42
2022/09/05 02:54:22;;;;;;;3.38;1.95;;;;;;;9.42;75.64;99875.28;4967721;28;20042;-43
2022/09/05 02:57:12;;;;;;;5.25;1.50;;;;;;;9.46;75.86;99878.69;4968200;28;20042;-40
2022/09/05 02:59:38;;;;;;;3.35;1.50;;;;;;;9.47;75.56;99880.38;4968137;28;20537;-40
2022/09/05 03:02:22;;;;;;;2.60;1.77;;;;;;;9.38;75.57;99876.28;4968851;28;20043;-43
2022/09/05 03:04:52;;;;;;;7.55;2.10;;;;;;;9.43;75.65;99882.19;4969650;28;20479;-41
2022/09/05 03:07:31;;;;;;;4.70;1.83;;;;;;;9.48;75.33;99877.72;4962485;28;20474;-42
2022/09/05 03:10:02;;;;;;;;;;;;;;;9.53;75.59;99881.06;4969257;28;20128;-41
2022/09/05 03:12:53;;;;;;;2.30;1.60;;;;;;;9.55;75.45;99883.63;4947663;28;19918;-43
2022/09/05 03:15:46;;;;;;;2.67;1.60;;;;;;;9.54;75.43;99882.75;4968939;28;20047;-41
2022/09/05 03:18:18;;;;;;;2.17;1.80;;;;;;;9.58;75.12;99879.19;4969164;28;20039;-41
2022/09/05 03:21:05;;;;;;;3.00;1.50;;;;;;;9.60;75.07;99885.19;4968722;28;20134;-40
2022/09/05 03:24:08;;;;;;;3.25;1.70;;;;;;;9.64;74.73;99885.97;4969201;28;20042;-41
2022/09/05 03:27:00;;;;;;;3.05;1.80;;;;;;;9.67;74.11;99883.28;4967966;28;20053;-42
2022/09/05 03:29:50;;;;;;;2.67;1.60;;;;;;;9.72;74.04;99881.44;4963833;28;20514;-44
2022/09/05 03:32:53;;;;;;;5.18;1.80;;;;;;;9.74;74.14;99882.22;4969090;28;20089;-41
2022/09/05 03:35:58;;;;;;;2.75;1.63;;;;;;;9.76;73.68;99883.03;4967962;28;20482;-44
2022/09/05 03:39:01;;;;;;;3.10;1.80;;;;;;;9.79;73.58;99882.94;4967697;28;20786;-40
2022/09/05 03:41:48;;;;;;;3.42;1.85;;;;;;;9.83;73.24;99884.56;4969428;28;20589;-41
2022/09/05 03:44:33;;;;;;;4.28;2.10;;;;;;;9.87;73.91;99878.41;4967810;28;20521;-42
2022/09/05 03:47:11;;;;;;;83.13;6.70;;;;;;;9.89;73.28;99878.34;4969725;28;20514;-40
2022/09/05 03:50:17;;;;;;;10.02;2.00;;;;;;;9.93;73.30;99879.97;4953802;28;20073;-41
2022/09/05 03:53:25;;;;;;;7.38;2.10;;;;;;;9.71;73.06;99838.19;4957011;28;20050;-42
2022/09/05 03:56:10;;;;;;;3.55;2.35;;;;;;;9.97;72.76;99885.03;4967642;28;20055;-41
2022/09/05 03:59:00;;;;;;;3.78;1.60;;;;;;;9.99;72.71;99887.59;4971407;28;20386;-42
2022/09/05 04:01:36;;;;;;;4.38;1.90;;;;;;;10.02;72.93;99883.16;4968724;28;20518;-41
2022/09/05 04:04:06;;;;;;;3.13;1.90;;;;;;;10.05;72.04;99888.25;4967412;28;20129;-43
2022/09/05 04:06:40;;;;;;;4.40;2.10;;;;;;;10.04;72.63;99878.78;4965750;28;20093;-41
2022/09/05 04:09:21;;;;;;;4.85;2.35;;;;;;;10.15;72.02;99884.47;4967458;28;20051;-42
2022/09/05 04:11:49;;;;;;;2.92;2.08;;;;;;;10.21;72.08;99883.47;4978665;28;20518;-41
2022/09/05 04:14:25;;;;;;;3.65;2.08;;;;;;;10.26;72.07;99879.00;4970214;28;20043;-42
2022/09/05 04:17:02;;;;;;;5.63;2.63;;;;;;;10.15;71.90;99861.09;4971887;28;20105;-40
2022/09/05 04:19:41;;;;;;;3.65;2.38;;;;;;;10.37;71.58;99876.06;4971193;28;20048;-42
2022/09/05 04:22:33;;;;;;;4.10;2.40;;;;;;;10.37;71.19;99876.94;4986601;28;20518;-43
2022/09/05 04:25:05;;;;;;;4.25;2.35;;;;;;;10.38;71.79;99880.38;4960433;28;20093;-42
2022/09/05 04:27:49;;;;;;;5.95;2.58;;;;;;;10.46;71.63;99873.22;4970987;28;20105;-41
2022/09/05 04:30:42;;;;;;;4.38;2.45;;;;;;;10.45;71.15;99874.97;4971731;28;20039;-42
2022/09/05 04:33:36;;;;;;;5.95;3.17;;;;;;;10.48;70.68;99874.84;4970925;28;20102;-40
2022/09/05 04:36:11;;;;;;;3.35;2.55;;;;;;;10.57;70.88;99873.75;4967960;28;20043;-45
2022/09/05 04:38:40;;;;;;;5.10;2.67;;;;;;;10.57;70.72;99871.97;4953155;28;20046;-42
2022/09/05 04:41:12;;;;;;;4.28;2.70;;;;;;;10.55;70.87;99881.56;4967952;28;20089;-43
2022/09/05 04:43:39;;;;;;;4.45;2.70;;;;;;;10.53;71.13;99877.31;4962242;28;20057;-43
2022/09/05 04:46:26;;;;;;;5.97;2.78;;;;;;;10.59;70.45;99882.31;4969698;28;20042;-45
2022/09/05 04:49:01;;;;;;;4.07;2.72;;;;;;;10.65;71.15;99868.28;4967589;28;20100;-42
2022/09/05 04:51:58;;;;;;;7.05;4.82;;;;;;;10.89;70.69;99894.34;4954141;28;20050;-42
2022/09/05 04:54:28;;;;;;;7.25;4.00;;;;;;;11.03;70.12;99880.91;4954195;28;20074;-49
2022/09/05 04:57:21;;;;;;;9.40;4.07;;;;;;;11.18;69.96;99879.53;4970848;28;20050;-42
2022/09/05 04:59:50;;;;;;;4.07;2.92;;;;;;;11.33;69.45;99882.47;4953210;28;20065;-42
2022/09/05 05:02:43;;;;;;;4.43;2.67;;;;;;;11.41;69.11;99883.06;4971000;28;20046;-42
2022/09/05 05:05:17;;;;;;;5.97;2.83;;;;;;;11.53;68.81;99879.19;4948687;28;20444;-41
2022/09/05 05:07:46;;;;;;;5.55;3.08;;;;;;;11.61;68.59;99884.13;4970061;28;20049;-42
2022/09/05 05:10:24;;;;;;;4.47;3.10;;;;;;;11.63;67.56;99872.75;4969594;28;20038;-42
2022/09/05 05:12:56;;;;;;;9.02;3.50;;;;;;;11.68;68.14;99869.97;4968162;28;20129;-42
2022/09/05 05:15:23;;;;;;;10.18;3.03;;;;;;;11.73;67.36;99883.69;4965829;28;20393;-42
2022/09/05 05:18:05;;;;;;;5.45;2.90;;;;;;;11.51;67.77;99847.16;4969883;28;20429;-42
2022/09/05 05:20:40;;;;;;;3.70;3.00;;;;;;;11.68;67.50;99885.59;4965977;28;20519;-41
2022/09/05 05:23:16;;;;;;;3.60;2.72;;;;;;;11.50;67.48;99855.00;4970040;28;20622;-43
2022/09/05 05:25:51;;;;;;;7.70;3.20;;;;;;;11.65;67.06;99860.53;4952374;28;20042;-41
2022/09/05 05:28:27;;;;;;;8.90;3.38;;;;;;;11.72;66.85;99876.78;4968610;28;20042;-43
2022/09/05 05:30:54;;;;;;;4.30;2.60;;;;;;;11.73;66.63;99853.31;4969538;28;20048;-44
2022/09/05 05:33:27;;;;;;;5.97;2.88;;;;;;;12.06;66.28;99877.28;4985537;28;20034;-42
2022/09/05 05:35:55;;;;;;;5.57;2.63;;;;;;;12.18;66.04;99878.56;4968116;28;20061;-43
2022/09/05 05:38:38;;;;;;;5.30;2.50;;;;;;;12.30;65.17;99872.88;4969816;28;20104;-41
2022/09/05 05:41:06;;;;;;;7.63;2.97;;;;;;;12.27;65.52;99880.81;4958891;28;20121;-41
2022/09/05 05:43:36;;;;;;;6.88;3.40;;;;;;;12.16;65.13;99870.81;4970491;28;20042;-42
2022/09/05 05:46:03;;;;;;;6.85;3.28;;;;;;;12.16;65.40;99883.00;4970518;28;20125;-41
2022/09/05 05:48:40;;;;;;;5.78;3.10;;;;;;;12.14;65.00;99874.41;4969799;28;20042;-41
2022/09/05 05:51:11;;;;;;;22.30;5.00;;;;;;;12.15;65.45;99889.94;4968559;28;20081;-42
2022/09/05 05:53:55;;;;;;;4.97;2.90;;;;;;;12.14;65.03;99883.03;4970730;28;20403;-43
2022/09/05 05:56:33;;;;;;;5.18;2.95;;;;;;;12.44;64.48;99888.88;4969949;28;20043;-43
2022/09/05 05:59:31;;;;;;;7.32;3.50;;;;;;;12.58;64.32;99883.09;4968831;28;20062;-42
2022/09/05 06:02:10;;;;;;;18.05;5.75;;;;;;;12.95;63.56;99883.31;4948401;28;20408;-43
2022/09/05 06:05:06;;;;;;;30.25;18.55;;;;;;;13.24;62.83;99891.75;4953603;28;20046;-45
2022/09/05 06:08:00;;;;;;;8.23;3.95;;;;;;;13.49;61.82;99892.41;4969974;28;20093;-41
2022/09/05 06:10:56;;;;;;;16.58;6.97;;;;;;;13.44;61.50;99886.53;4967836;28;20038;-46
2022/09/05 06:13:52;;;;;;;9.10;6.32;;;;;;;13.62;61.15;99885.72;4966069;28;20055;-41
2022/09/05 06:16:26;;;;;;;5.30;3.00;;;;;;;13.87;60.41;99888.97;4968756;28;20096;-41
2022/09/05 06:19:17;;;;;;;10.90;4.60;;;;;;;14.20;59.30;99883.13;4966528;28;20050;-46
2022/09/05 06:22:01;;;;;;;8.07;3.90;;;;;;;14.44;58.37;99883.81;4963560;28;20043;-42
2022/09/05 06:24:56;;;;;;;7.95;2.80;;;;;;;14.67;57.53;99897.50;4968493;28;20109;-44
2022/09/05 06:27:40;;;;;;;5.95;3.60;;;;;;;15.24;56.36;99891.19;4967799;28;20046;-40
2022/09/05 06:30:13;;;;;;;7.97;3.50;;;;;;;15.32;56.07;99895.19;4967122;28;20042;-41
2022/09/05 06:32:59;;;;;;;12.80;4.03;;;;;;;15.20;56.09;99889.66;4969059;28;20422;-47
2022/09/05 06:35:55;;;;;;;3.90;2.90;;;;;;;14.62;56.23;99894.25;4968224;28;20050;-39
2022/09/05 06:38:59;;;;;;;6.88;2.90;;;;;;;14.34;56.79;99889.41;4965624;28;20094;-40
2022/09/05 06:41:43;;;;;;;4.90;3.92;;;;;;;14.57;56.65;99890.16;4925472;29;20067;-40
2022/09/05 06:44:21;;;;;;;3.38;2.70;;;;;;;14.80;56.14;99890.75;4928671;29;20039;-40
2022/09/05 06:46:52;;;;;;;12.13;7.35;;;;;;;15.24;54.87;99883.31;4927808;29;20062;-41
2022/09/05 06:49:24;;;;;;;13.18;6.95;;;;;;;15.96;54.22;99895.38;4896583;29;20576;-41
2022/09/05 06:51:53;;;;;;;20.67;16.25;;;;;;;17.33;51.40;99891.16;4927861;29;20543;-42
2022/09/05 06:54:54;;;;;;;12.57;6.88;;;;;;;18.25;49.36;99889.97;4907459;29;20467;-43
2022/09/05 06:57:44;;;;;;;10.27;6.70;;;;;;;18.57;48.05;99890.59;4897564;29;20094;-48
2022/09/05 07:00:24;;;;;;;16.95;7.85;;;;;;;17.82;48.44;99897.03;4924502;29;20078;-41
2022/09/05 07:03:29;;;;;;;5.90;3.80;;;;;;;17.15;49.13;99898.34;4927327;29;20043;-45
2022/09/05 07:06:25;;;;;;;6.70;3.53;;;;;;;16.50;49.88;99895.00;4925368;29;20580;-44
2022/09/05 07:09:21;;;;;;;12.70;6.07;;;;;;;16.00;50.65;99899.53;4928349;29;20036;-44
2022/09/05 07:12:07;;;;;;;6.57;3.30;;;;;;;15.72;51.15;99902.75;4927604;29;20047;-45
2022/09/05 07:14:51;;;;;;;5.88;2.45;;;;;;;15.51;51.50;99906.44;4908774;29;20048;-44
2022/09/05 07:18:17;;;;;;;3.38;2.40;;;;;;;15.36;51.33;99900.19;4930554;29;20129;-41
2022/09/05 07:20:56;;;;;;;5.80;2.40;;;;;;;15.22;51.76;99897.44;4952803;28;20085;-44
2022/09/05 07:23:45;;;;;;;2.67;2.08;;;;;;;15.21;51.46;99891.34;4968396;28;20039;-45
2022/09/05 07:26:11;;;;;;;7.73;3.73;;;;;;;15.34;51.38;99886.31;4967447;28;20134;-45
2022/09/05 07:28:42;;;;;;;3.63;1.90;;;;;;;16.69;49.18;99891.41;4968562;28;20317;-44
2022/09/05 07:31:16;;;;;;;3.58;2.38;;;;;;;18.18;46.52;99855.28;4965381;28;20125;-45
2022/09/05 07:33:45;;;;;;;2.00;1.83;;;;;;;20.84;42.68;99889.00;4968173;28;20046;-41
2022/09/05 07:36:24;;;;;;;3.63;2.20;;;;;;;23.65;37.64;99891.38;4962915;28;20515;-42
2022/09/05 07:38:56;;;;;;;4.70;2.00;;;;;;;24.06;35.26;99879.84;4960557;28;20298;-44
2022/09/05 07:41:27;;;;;;;4.28;2.17;;;;;;;22.79;37.06;99888.84;4968684;28;20138;-48
2022/09/05 07:43:58;;;;;;;3.97;2.13;;;;;;;21.39;38.45;99877.84;4951754;28;20062;-44
2022/09/05 07:46:27;;;;;;;3.40;2.05;;;;;;;20.24;39.57;99873.97;4971207;28;20046;-44
2022/09/05 07:49:06;;;;;;;4.63;2.05;;;;;;;19.33;40.82;99883.78;4973103;28;20146;-44
2022/09/05 07:51:33;;;;;;;;;;;;;;;18.70;41.74;99880.09;4969181;28;20045;-41
2022/09/05 07:54:17;;;;;;;6.85;2.55;;;;;;;18.02;42.89;99883.47;4972678;28;19964;-45
2022/09/05 07:56:59;;;;;;;7.20;3.33;;;;;;;17.51;43.70;99879.56;4970564;28;20793;-41
2022/09/05 07:59:27;;;;;;;7.72;2.00;;;;;;;16.92;44.49;99873.41;4969099;28;20042;-49
2022/09/05 08:01:54;;;;;;;4.85;2.72;;;;;;;16.51;45.21;99862.59;4970559;28;20047;-41
2022/09/05 08:04:32;;;;;;;3.95;1.83;;;;;;;16.63;45.46;99871.59;4955015;28;20114;-43
2022/09/05 08:07:06;;;;;;;2.10;1.50;;;;;;;17.06;44.50;99866.53;4971770;28;20041;-42
2022/09/05 08:09:33;;;;;;;1.83;1.50;;;;;;;17.58;43.63;99870.41;4954343;28;20042;-42
2022/09/05 08:12:10;;;;;;;4.40;1.50;;;;;;;18.28;42.26;99866.06;4972101;28;20268;-42
2022/09/05 08:15:03;;;;;;;4.97;1.40;;;;;;;18.84;41.28;99866.91;4970654;28;20042;-44
2022/09/05 08:17:30;;;;;;;2.03;1.30;;;;;;;18.54;41.33;99838.09;4970135;28;20436;-43
2022/09/05 08:20:01;;;;;;;1.80;1.13;;;;;;;18.30;41.83;99855.44;4970081;28;20047;-45
2022/09/05 08:22:30;;;;;;;2.35;1.10;;;;;;;17.77;42.07;99857.84;4971193;28;20840;-40
2022/09/05 08:25:38;;;;;;;4.07;1.27;;;;;;;17.28;42.50;99856.44;4969807;28;20046;-41
2022/09/05 08:28:18;;;;;;;3.23;2.10;;;;;;;16.81;43.17;99853.94;4969652;28;20051;-40
2022/09/05 08:30:48;;;;;;;2.25;1.20;;;;;;;16.43;43.81;99833.28;4971109;28;20045;-40
2022/09/05 08:33:21;;;;;;;1.88;1.15;;;;;;;16.25;43.81;99831.69;4970355;28;20042;-40
2022/09/05 08:35:58;;;;;;;1.50;1.10;;;;;;;16.24;43.56;99855.38;4969589;28;20077;-39
2022/09/05 08:38:24;;;;;;;2.85;1.40;;;;;;;16.16;43.92;99850.56;4969776;28;20518;-40
2022/09/05 08:41:19;;;;;;;2.15;1.10;;;;;;;15.99;44.23;99851.47;4951421;28;20400;-42
2022/09/05 08:44:04;;;;;;;3.17;1.30;;;;;;;15.83;44.68;99855.00;4970283;28;20796;-40
2022/09/05 08:46:34;;;;;;;2.00;1.15;;;;;;;15.62;45.23;99836.84;4971614;28;20042;-39
2022/09/05 08:49:37;;;;;;;2.30;1.10;;;;;;;15.77;45.69;99852.69;4971915;28;20426;-40
2022/09/05 08:52:08;;;;;;;1.60;1.25;;;;;;;15.79;45.97;99851.69;4968335;28;20042;-41
2022/09/05 08:54:59;;;;;;;;;;;;;;;15.92;45.42;99855.34;4979431;28;20074;-42
2022/09/05 08:57:50;;;;;;;1.25;0.82;;;;;;;15.96;45.86;99856.03;4969233;28;19918;-42
2022/09/05 09:00:16;;;;;;;2.97;1.10;;;;;;;16.26;45.51;99846.50;4969373;28;20100;-46
2022/09/05 09:03:07;;;;;;;1.52;1.10;;;;;;;16.59;44.93;99851.66;4969312;28;20045;-40
2022/09/05 09:05:54;;;;;;;3.42;1.10;;;;;;;16.40;44.88;99846.59;4965298;28;20046;-41
2022/09/05 09:08:32;;;;;;;5.60;1.00;;;;;;;16.27;45.37;99849.97;4929027;28;20490;-40
2022/09/05 09:11:03;;;;;;;3.72;1.10;;;;;;;16.01;45.70;99847.00;4970996;28;20045;-44
2022/09/05 09:13:51;;;;;;;2.10;1.00;;;;;;;15.75;46.46;99847.56;4969337;28;20062;-43
2022/09/05 09:16:39;;;;;;;1.60;1.00;;;;;;;15.83;46.50;99850.59;4968143;28;20045;-43
2022/09/05 09:19:09;;;;;;;3.13;0.80;;;;;;;15.95;46.27;99847.34;4971136;28;20101;-46
2022/09/05 09:21:49;;;;;;;0.90;0.80;;;;;;;16.06;46.18;99842.34;4970753;28;20039;-47
2022/09/05 09:24:31;;;;;;;2.45;0.88;;;;;;;16.25;46.14;99844.81;4969807;28;20422;-46
2022/09/05 09:27:04;;;;;;;3.08;1.13;;;;;;;16.33;45.95;99839.16;4969787;28;20045;-44
2022/09/05 09:29:34;;;;;;;2.55;1.20;;;;;;;16.36;45.79;99846.84;4970982;28;20050;-44
2022/09/05 09:32:08;;;;;;;1.77;0.90;;;;;;;16.29;45.95;99833.22;4969469;28;20166;-43
2022/09/05 09:34:47;;;;;;;5.50;1.25;;;;;;;15.92;46.74;99810.75;4937355;28;20085;-44
2022/09/05 09:37:41;;;;;;;3.55;1.20;;;;;;;15.92;47.20;99836.97;4970100;28;20034;-42
2022/09/05 09:40:36;;;;;;;3.40;1.52;;;;;;;15.76;47.72;99837.88;4965167;28;20055;-46
2022/09/05 09:43:13;;;;;;;2.00;1.00;;;;;;;15.46;48.36;99830.69;4968430;28;20058;-41
2022/09/05 09:46:09;;;;;;;3.70;1.20;;;;;;;15.12;48.80;99839.44;4966652;28;20043;-41
2022/09/05 09:48:56;;;;;;;1.88;1.13;;;;;;;15.09;49.45;99841.34;4962198;28;20101;-43
2022/09/05 09:51:25;;;;;;;2.55;1.20;;;;;;;15.15;49.30;99835.78;4969011;28;20050;-46
2022/09/05 09:53:56;;;;;;;3.70;1.10;;;;;;;15.18;49.49;99833.00;4968564;28;20549;-42
2022/09/05 09:56:25;;;;;;;7.93;1.85;;;;;;;15.23;49.60;99837.09;4966510;28;20133;-43
2022/09/05 09:59:06;;;;;;;1.52;0.90;;;;;;;15.26;49.54;99830.88;4973751;28;20065;-39
2022/09/05 10:02:23;;;;;;;1.50;1.00;;;;;;;15.23;49.69;99824.00;4968912;28;20046;-40
2022/09/05 10:05:10;;;;;;;4.30;1.20;;;;;;;15.26;50.07;99828.25;4937084;28;20077;-43
2022/09/05 10:07:48;;;;;;;3.67;1.05;;;;;;;14.91;50.78;99834.41;4967445;28;20043;-41
2022/09/05 10:10:23;;;;;;;3.92;1.15;;;;;;;14.81;51.20;99832.22;4968293;28;20057;-40
2022/09/05 10:13:27;;;;;;;2.83;1.00;;;;;;;14.79;51.19;99833.25;4968214;28;20408;-40
2022/09/05 10:16:17;;;;;;;3.85;2.28;;;;;;;14.67;51.95;99836.44;4893512;29;20505;-43
2022/09/05 10:18:58;;;;;;;2.30;1.17;;;;;;;14.73;52.07;99825.69;4907649;29;20090;-42
2022/09/05 10:21:45;;;;;;;2.20;0.80;;;;;;;14.62;52.05;99826.22;4951726;28;20051;-41
2022/09/05 10:24:39;;;;;;;9.18;5.82;;;;;;;14.64;52.42;99824.38;4968459;28;20035;-40
2022/09/05 10:27:41;;;;;;;1.52;0.90;;;;;;;14.61;52.60;99813.19;4966277;28;20038;-41
2022/09/05 10:30:45;;;;;;;1.13;0.70;;;;;;;14.77;52.08;99822.00;4967259;28;20102;-40
2022/09/05 10:33:34;;;;;;;4.57;0.95;;;;;;;14.79;52.50;99825.38;4950821;28;20038;-42
2022/09/05 10:36:09;;;;;;;1.65;1.00;;;;;;;14.83;52.75;99833.00;4968557;28;20047;-40
2022/09/05 10:38:39;;;;;;;2.55;0.82;;;;;;;14.75;53.94;99823.84;4964934;28;20050;-41
2022/09/05 10:41:13;;;;;;;4.03;1.27;;;;;;;14.59;55.75;99831.59;4966812;28;20149;-41
2022/09/05 10:44:03;;;;;;;1.65;1.10;;;;;;;14.23;57.81;99830.72;4967166;28;20472;-40
2022/09/05 10:46:44;;;;;;;3.00;1.38;;;;;;;14.22;58.99;99819.41;4965480;28;20136;-41
2022/09/05 10:49:13;;;;;;;2.13;1.02;;;;;;;14.36;59.83;99829.19;4967740;28;20070;-41
2022/09/05 10:52:01;;;;;;;2.13;1.10;;;;;;;14.50;60.10;99818.13;4968984;28;20038;-41
2022/09/05 10:55:08;;;;;;;2.50;1.15;;;;;;;15.26;59.06;99815.16;4967918;28;20127;-44
2022/09/05 10:57:58;;;;;;;1.50;1.00;;;;;;;15.42;58.77;99821.28;4967852;28;20112;-40
2022/09/05 11:00:50;;;;;;;1.20;0.82;;;;;;;15.38;58.71;99817.16;4967603;28;20510;-41
2022/09/05 11:03:21;;;;;;;2.30;1.00;;;;;;;15.31;58.54;99818.38;4952228;28;20125;-42
2022/09/05 11:05:56;;;;;;;1.58;1.00;;;;;;;15.53;58.31;99815.53;4967815;28;20057;-44
2022/09/05 11:08:44;;;;;;;3.08;1.30;;;;;;;15.64;57.82;99821.06;4968261;28;20344;-40
2022/09/05 11:11:14;;;;;;;1.73;1.05;;;;;;;15.50;58.37;99813.88;4958631;28;20510;-40
2022/09/05 11:13:46;;;;;;;2.08;1.20;;;;;;;15.16;59.30;99811.31;4967894;28;20039;-40
2022/09/05 11:16:48;;;;;;;2.38;1.27;;;;;;;14.95;61.33;99815.84;4969457;28;20133;-41
2022/09/05 11:19:18;;;;;;;3.85;1.30;;;;;;;14.84;62.48;99808.53;4945415;28;20490;-40
2022/09/05 11:21:53;;;;;;;6.20;1.55;;;;;;;15.15;62.75;99802.59;4971239;28;20222;-41
2022/09/05 11:24:26;;;;;;;2.60;1.13;;;;;;;16.53;60.78;99803.00;4973142;28;20042;-44
2022/09/05 11:26:57;;;;;;;1.77;0.90;;;;;;;17.62;56.66;99793.03;4973348;28;20499;-45
2022/09/05 11:29:30;;;;;;;3.05;0.73;;;;;;;18.26;54.19;99780.25;4972731;28;20049;-44
2022/09/05 11:32:08;;;;;;;1.90;0.90;;;;;;;19.09;52.64;99797.59;4967889;28;20046;-47
2022/09/05 11:34:36;;;;;;;1.45;0.93;;;;;;;19.26;52.45;99795.50;4972831;28;20198;-42
2022/09/05 11:37:10;;;;;;;2.47;1.05;;;;;;;18.68;52.84;99795.94;4972713;28;20047;-48
2022/09/05 11:40:21;;;;;;;1.30;0.90;;;;;;;17.97;53.55;99788.22;4953353;28;20069;-41
2022/09/05 11:43:28;;;;;;;1.40;0.90;;;;;;;17.37;54.72;99792.81;4965848;28;20057;-43
2022/09/05 11:46:03;;;;;;;1.15;0.98;;;;;;;17.68;54.53;99789.19;4968748;28;20049;-43
2022/09/05 11:48:47;;;;;;;2.72;1.05;;;;;;;18.87;52.30;99783.22;4972846;28;20038;-45
2022/09/05 11:51:27;;;;;;;3.35;1.00;;;;;;;20.38;49.26;99783.22;4972782;28;20034;-43
2022/09/05 11:53:53;;;;;;;1.42;0.77;;;;;;;20.07;48.73;99780.13;4971516;28;20047;-43
2022/09/05 11:56:30;;;;;;;1.40;0.70;;;;;;;19.75;48.67;99774.50;4972341;28;20057;-40
2022/09/05 11:59:20;;;;;;;2.90;0.75;;;;;;;19.85;48.04;99772.06;4971512;28;20057;-41
2022/09/05 12:01:49;;;;;;;0.88;0.75;;;;;;;19.46;48.41;99767.81;4972481;28;20521;-42
2022/09/05 12:04:33;;;;;;;1.38;0.73;;;;;;;19.15;48.84;99773.47;4970777;28;20095;-41
2022/09/05 12:07:03;;;;;;;7.82;4.05;;;;;;;18.86;49.41;99775.41;4971547;28;20055;-42
2022/09/05 12:09:59;;;;;;;5.85;3.75;;;;;;;18.53;50.07;99775.81;4971890;28;20038;-41
2022/09/05 12:12:35;;;;;;;1.70;1.13;;;;;;;18.20;50.38;99763.94;4970807;28;20038;-40
2022/09/05 12:15:16;;;;;;;1.60;1.08;;;;;;;18.50;50.35;99771.63;4970785;28;20043;-40
2022/09/05 12:18:13;;;;;;;12.80;9.25;;;;;;;18.69;49.85;99766.00;4971736;28;20060;-41
2022/09/05 12:20:41;;;;;;;3.10;1.75;;;;;;;18.75;49.49;99770.03;4970332;28;20050;-43
2022/09/05 12:23:43;;;;;;;2.25;0.90;;;;;;;18.61;49.76;99757.78;4967670;28;20043;-46
2022/09/05 12:26:18;;;;;;;1.50;1.08;;;;;;;18.53;49.53;99760.88;4954390;28;20511;-44
2022/09/05 12:28:56;;;;;;;2.00;1.23;;;;;;;18.68;49.28;99751.16;4970999;28;20066;-45
2022/09/05 12:31:33;;;;;;;7.00;1.03;;;;;;;18.59;49.21;99749.13;4967789;28;20046;-43
2022/09/05 12:34:00;;;;;;;1.65;1.17;;;;;;;18.44;49.19;99742.19;4953305;28;20293;-42
2022/09/05 12:36:48;;;;;;;2.85;1.30;;;;;;;18.60;48.92;99742.91;4968285;28;20152;-42
2022/09/05 12:39:17;;;;;;;1.85;1.30;;;;;;;18.49;48.95;99734.84;4962814;28;20070;-43
2022/09/05 12:41:56;;;;;;;1.50;1.30;;;;;;;18.25;49.90;99733.81;4968030;28;20055;-42
2022/09/05 12:44:27;;;;;;;3.75;1.80;;;;;;;18.77;49.15;99731.25;4968366;28;20065;-49
2022/09/05 12:46:56;;;;;;;2.35;1.80;;;;;;;20.50;45.79;99734.78;4961120;28;20049;-42